createdAt,value
2018-04-27T00:02:00.818Z,6.60
2018-04-27T00:04:29.863Z,6.50
2018-04-27T00:06:58.638Z,6.50
2018-04-27T00:09:27.620Z,6.60
2018-04-27T00:11:56.417Z,6.70
2018-04-27T00:14:25.429Z,6.70
2018-04-27T00:16:54.121Z,6.70
2018-04-27T00:19:22.894Z,6.70
2018-04-27T00:21:51.782Z,6.60
2018-04-27T00:24:20.568Z,6.60
2018-04-27T00:26:49.239Z,6.60
2018-04-27T00:29:18.352Z,6.50
2018-04-27T00:31:47.134Z,6.50
2018-04-27T00:34:15.835Z,6.50
2018-04-27T00:36:44.918Z,6.60
2018-04-27T00:39:13.545Z,6.60
2018-04-27T00:41:42.688Z,6.60
2018-04-27T00:44:11.779Z,6.60
2018-04-27T00:46:40.797Z,6.50
2018-04-27T00:49:09.494Z,6.50
2018-04-27T00:51:38.667Z,6.40
2018-04-27T00:54:07.700Z,6.40
2018-04-27T00:56:36.860Z,6.40
2018-04-27T00:59:05.523Z,6.30
2018-04-27T01:01:34.573Z,6.30
2018-04-27T01:04:03.735Z,6.30
2018-04-27T01:06:32.834Z,6.20
2018-04-27T01:09:01.516Z,6.20
2018-04-27T01:11:30.063Z,6.20
2018-04-27T01:13:58.614Z,6.20
2018-04-27T01:16:27.138Z,6.20
2018-04-27T01:18:56.257Z,6.20
2018-04-27T01:21:24.827Z,6.20
2018-04-27T01:23:54.092Z,6.00
2018-04-27T01:26:23.395Z,5.90
2018-04-27T01:28:52.194Z,5.90
2018-04-27T01:31:20.703Z,6.00
2018-04-27T01:33:49.289Z,6.00
2018-04-27T01:36:18.597Z,6.00
2018-04-27T01:38:47.109Z,6.00
2018-04-27T01:41:15.606Z,6.00
2018-04-27T01:43:44.083Z,5.90
2018-04-27T01:46:12.598Z,6.00
2018-04-27T01:48:41.258Z,5.90
2018-04-27T01:51:09.893Z,5.90
2018-04-27T01:53:38.403Z,5.90
2018-04-27T01:56:06.956Z,5.90
2018-04-27T01:58:35.499Z,5.90
2018-04-27T02:01:04.029Z,5.90
2018-04-27T02:03:32.523Z,5.90
2018-04-27T02:06:01.175Z,6.00
2018-04-27T02:08:30.524Z,5.90
2018-04-27T02:10:59.139Z,5.80
2018-04-27T02:13:27.624Z,5.70
2018-04-27T02:15:56.174Z,5.80
2018-04-27T02:18:24.735Z,5.80
2018-04-27T02:20:53.250Z,5.90
2018-04-27T02:23:21.739Z,5.90
2018-04-27T02:25:50.214Z,5.90
2018-04-27T02:28:18.935Z,6.10
2018-04-27T02:30:48.476Z,6.10
2018-04-27T02:33:16.987Z,6.20
2018-04-27T02:35:45.535Z,6.20
2018-04-27T02:38:14.402Z,6.30
2018-04-27T02:40:42.949Z,6.30
2018-04-27T02:43:11.470Z,6.30
2018-04-27T02:45:39.947Z,6.40
2018-04-27T02:48:08.489Z,6.40
2018-04-27T02:50:36.972Z,6.40
2018-04-27T02:53:05.540Z,6.40
2018-04-27T02:55:34.029Z,6.50
2018-04-27T02:58:02.524Z,6.50
2018-04-27T03:00:31.066Z,6.60
2018-04-27T03:02:59.592Z,6.60
2018-04-27T03:05:28.153Z,6.70
2018-04-27T03:07:56.708Z,6.60
2018-04-27T03:10:25.473Z,6.60
2018-04-27T03:12:54.440Z,6.60
2018-04-27T03:15:23.155Z,6.70
2018-04-27T03:17:51.948Z,6.80
2018-04-27T03:20:20.624Z,6.80
2018-04-27T03:22:49.308Z,6.70
2018-04-27T03:25:18.222Z,6.80
2018-04-27T03:27:47.256Z,6.70
2018-04-27T03:30:17.758Z,6.70
2018-04-27T03:32:46.424Z,6.70
2018-04-27T03:35:15.515Z,6.80
2018-04-27T03:37:44.209Z,6.80
2018-04-27T03:40:12.983Z,6.80
2018-04-27T03:42:41.989Z,6.80
2018-04-27T03:45:10.759Z,6.90
2018-04-27T03:47:39.425Z,7.00
2018-04-27T03:50:08.393Z,6.90
2018-04-27T03:52:37.207Z,7.00
2018-04-27T03:55:05.914Z,7.00
2018-04-27T03:57:34.598Z,7.00
2018-04-27T04:00:15.571Z,7.00
2018-04-27T04:02:55.749Z,7.10
2018-04-27T04:05:27.161Z,7.10
2018-04-27T04:07:55.756Z,7.10
2018-04-27T04:10:24.321Z,7.20
2018-04-27T04:12:53.616Z,7.30
2018-04-27T04:15:22.910Z,7.30
2018-04-27T04:17:51.935Z,7.30
2018-04-27T04:20:20.622Z,7.40
2018-04-27T04:22:49.558Z,7.60
2018-04-27T04:25:18.408Z,7.60
2018-04-27T04:27:47.071Z,7.70
2018-04-27T04:30:15.704Z,7.70
2018-04-27T04:32:44.203Z,7.80
2018-04-27T04:35:13.148Z,8.00
2018-04-27T04:37:41.664Z,8.10
2018-04-27T04:40:10.142Z,8.20
2018-04-27T04:42:38.643Z,8.30
2018-04-27T04:45:07.187Z,8.30
2018-04-27T04:47:36.053Z,8.40
2018-04-27T04:50:04.750Z,8.30
2018-04-27T04:52:33.794Z,8.20
2018-04-27T04:55:02.954Z,8.10
2018-04-27T04:57:31.669Z,8.10
2018-04-27T05:00:00.172Z,8.10
2018-04-27T05:02:28.731Z,8.10
2018-04-27T05:04:57.210Z,8.20
2018-04-27T05:07:25.686Z,8.00
2018-04-27T05:09:54.320Z,8.10
2018-04-27T05:12:22.881Z,8.20
2018-04-27T05:14:51.356Z,8.30
2018-04-27T05:17:19.844Z,8.30
2018-04-27T05:19:54.986Z,8.40
2018-04-27T05:22:23.554Z,8.40
2018-04-27T05:24:52.503Z,8.40
2018-04-27T05:27:21.598Z,8.30
2018-04-27T05:29:50.397Z,8.40
2018-04-27T05:32:19.467Z,8.40
2018-04-27T05:34:48.048Z,8.50
2018-04-27T05:37:16.596Z,8.50
2018-04-27T05:39:45.219Z,8.60
2018-04-27T05:42:13.814Z,8.70
2018-04-27T05:44:42.420Z,8.60
2018-04-27T05:47:11.013Z,8.70
2018-04-27T05:49:39.713Z,8.60
2018-04-27T05:52:08.544Z,8.30
2018-04-27T05:54:37.605Z,8.30
2018-04-27T05:57:06.621Z,8.30
2018-04-27T05:59:35.340Z,8.40
2018-04-27T06:02:04.110Z,8.40
2018-04-27T06:04:33.205Z,8.30
2018-04-27T06:07:02.215Z,8.30
2018-04-27T06:09:30.909Z,8.30
2018-04-27T06:11:59.973Z,8.40
2018-04-27T06:14:28.758Z,8.50
2018-04-27T06:16:57.854Z,8.70
2018-04-27T06:19:26.924Z,8.80
2018-04-27T06:21:56.048Z,8.90
2018-04-27T06:24:25.087Z,8.70
2018-04-27T06:26:54.241Z,8.90
2018-04-27T06:29:22.743Z,8.90
2018-04-27T06:31:51.343Z,9.20
2018-04-27T06:34:19.956Z,9.50
2018-04-27T06:36:48.482Z,9.50
2018-04-27T06:39:17.072Z,9.40
2018-04-27T06:41:45.737Z,9.30
2018-04-27T06:44:14.288Z,9.60
2018-04-27T06:46:42.806Z,9.60
2018-04-27T06:49:11.343Z,9.70
2018-04-27T06:51:39.927Z,9.80
2018-04-27T06:54:09.374Z,10.00
2018-04-27T06:56:38.464Z,10.00
2018-04-27T06:59:07.082Z,10.00
2018-04-27T07:01:35.677Z,9.90
2018-04-27T07:04:04.253Z,10.20
2018-04-27T07:06:32.859Z,10.00
2018-04-27T07:09:01.862Z,9.80
2018-04-27T07:11:30.473Z,9.70
2018-04-27T07:13:59.110Z,9.60
2018-04-27T07:16:28.406Z,9.60
2018-04-27T07:18:56.933Z,9.60
2018-04-27T07:21:26.178Z,9.80
2018-04-27T07:23:55.241Z,9.80
2018-04-27T07:26:24.258Z,9.80
2018-04-27T07:28:53.834Z,9.90
2018-04-27T07:31:22.480Z,10.00
2018-04-27T07:33:50.988Z,10.10
2018-04-27T07:36:19.893Z,10.10
2018-04-27T07:38:48.986Z,10.10
2018-04-27T07:41:17.564Z,10.30
2018-04-27T07:43:46.901Z,10.50
2018-04-27T07:46:15.579Z,10.50
2018-04-27T07:48:44.457Z,10.70
2018-04-27T07:51:13.174Z,10.90
2018-04-27T07:53:42.331Z,10.60
2018-04-27T07:56:11.359Z,10.50
2018-04-27T07:58:40.451Z,10.50
2018-04-27T08:01:09.618Z,10.60
2018-04-27T08:03:38.711Z,10.70
2018-04-27T08:06:07.808Z,10.80
2018-04-27T08:08:36.868Z,10.90
2018-04-27T08:11:05.792Z,10.80
2018-04-27T08:13:35.002Z,10.60
2018-04-27T08:16:04.096Z,10.60
2018-04-27T08:18:33.192Z,9.90
2018-04-27T08:21:02.379Z,9.70
2018-04-27T08:23:31.396Z,9.40
2018-04-27T08:26:00.485Z,9.30
2018-04-27T08:28:29.579Z,9.00
2018-04-27T08:30:58.669Z,9.10
2018-04-27T08:33:27.714Z,9.00
2018-04-27T08:42:40.812Z,9.10
2018-04-27T08:45:09.913Z,9.50
2018-04-27T08:47:38.917Z,9.80
2018-04-27T08:50:08.104Z,10.10
2018-04-27T08:52:37.204Z,10.30
2018-04-27T08:55:06.617Z,10.30
2018-04-27T08:57:35.803Z,10.20
2018-04-27T09:00:04.692Z,9.90
2018-04-27T09:02:33.542Z,9.40
2018-04-27T09:05:02.236Z,9.20
2018-04-27T09:07:30.905Z,9.00
2018-04-27T09:10:00.047Z,8.90
2018-04-27T09:12:29.088Z,9.00
2018-04-27T09:14:58.242Z,9.30
2018-04-27T09:17:27.338Z,9.40
2018-04-27T09:19:56.015Z,9.50
2018-04-27T09:22:24.705Z,9.60
2018-04-27T09:24:54.215Z,9.40
2018-04-27T09:27:23.212Z,9.60
2018-04-27T09:29:51.908Z,9.70
2018-04-27T09:32:21.107Z,9.90
2018-04-27T09:34:50.115Z,10.30
2018-04-27T09:37:19.283Z,10.60
2018-04-27T09:39:48.783Z,10.70
2018-04-27T09:42:17.367Z,10.80
2018-04-27T09:44:46.037Z,10.80
2018-04-27T09:47:14.665Z,10.90
2018-04-27T09:49:43.310Z,10.90
2018-04-27T09:52:11.908Z,11.20
2018-04-27T09:54:40.776Z,11.40
2018-04-27T09:57:09.337Z,11.40
2018-04-27T09:59:38.470Z,11.20
2018-04-27T10:02:07.325Z,10.60
2018-04-27T10:04:36.791Z,9.70
2018-04-27T10:07:05.406Z,9.30
2018-04-27T10:09:33.978Z,9.00
2018-04-27T10:12:02.666Z,8.90
2018-04-27T10:14:31.198Z,9.00
2018-04-27T10:16:59.937Z,9.20
2018-04-27T10:19:33.390Z,9.20
2018-04-27T10:22:02.933Z,9.30
2018-04-27T10:24:32.094Z,9.50
2018-04-27T10:27:01.470Z,9.70
2018-04-27T10:29:30.106Z,9.70
2018-04-27T10:31:59.251Z,10.10
2018-04-27T10:34:28.393Z,10.30
2018-04-27T10:36:57.565Z,10.70
2018-04-27T10:39:26.250Z,11.10
2018-04-27T10:41:54.804Z,11.40
2018-04-27T10:44:24.178Z,12.00
2018-04-27T10:46:52.763Z,12.00
2018-04-27T10:49:21.362Z,12.00
2018-04-27T10:51:49.986Z,11.80
2018-04-27T10:54:18.729Z,11.60
2018-04-27T10:56:47.432Z,11.50
2018-04-27T10:59:16.255Z,11.30
2018-04-27T11:01:44.945Z,11.20
2018-04-27T11:04:13.520Z,10.70
2018-04-27T11:06:42.180Z,10.70
2018-04-27T11:09:11.179Z,10.90
2018-04-27T11:11:40.649Z,11.30
2018-04-27T11:14:09.225Z,11.80
2018-04-27T11:16:37.921Z,11.80
2018-04-27T11:19:06.522Z,11.60
2018-04-27T11:21:35.941Z,11.80
2018-04-27T11:24:05.434Z,11.80
2018-04-27T11:26:34.553Z,12.20
2018-04-27T11:29:03.123Z,12.50
2018-04-27T11:31:31.716Z,12.60
2018-04-27T11:34:00.612Z,12.60
2018-04-27T11:36:29.644Z,12.50
2018-04-27T11:38:58.806Z,12.60
2018-04-27T11:41:27.934Z,12.70
2018-04-27T11:50:40.610Z,12.90
2018-04-27T11:53:09.902Z,13.30
2018-04-27T11:55:38.733Z,13.10
2018-04-27T11:58:07.888Z,12.70
2018-04-27T12:00:36.567Z,12.10
2018-04-27T12:03:05.314Z,12.00
2018-04-27T12:05:34.616Z,11.90
2018-04-27T12:08:03.712Z,12.10
2018-04-27T12:10:32.470Z,12.00
2018-04-27T12:13:01.152Z,12.00
2018-04-27T12:15:30.540Z,12.20
2018-04-27T12:17:59.171Z,12.10
2018-04-27T12:20:27.843Z,11.90
2018-04-27T12:22:57.787Z,12.00
2018-04-27T12:25:26.498Z,12.00
2018-04-27T12:27:55.651Z,12.40
2018-04-27T12:30:24.578Z,12.60
2018-04-27T12:32:53.129Z,12.50
2018-04-27T12:35:21.621Z,11.90
2018-04-27T12:37:50.180Z,11.80
2018-04-27T12:40:18.790Z,11.60
2018-04-27T12:42:47.924Z,11.80
2018-04-27T12:45:17.622Z,12.00
2018-04-27T12:47:46.779Z,11.90
2018-04-27T12:50:15.878Z,12.00
2018-04-27T12:52:44.847Z,12.10
2018-04-27T12:55:13.990Z,12.20
2018-04-27T12:57:42.750Z,12.00
2018-04-27T13:00:11.861Z,11.90
2018-04-27T13:02:40.912Z,11.80
2018-04-27T13:05:10.037Z,11.70
2018-04-27T13:07:39.139Z,11.70
2018-04-27T13:10:07.766Z,11.90
2018-04-27T13:12:36.547Z,11.80
2018-04-27T13:15:05.286Z,11.60
2018-04-27T13:17:34.035Z,11.70
2018-04-27T13:20:02.886Z,11.80
2018-04-27T13:22:31.595Z,11.80
2018-04-27T13:25:00.756Z,11.70
2018-04-27T13:27:29.757Z,11.70
2018-04-27T13:29:58.902Z,11.80
2018-04-27T13:32:28.045Z,12.10
2018-04-27T13:34:57.059Z,12.10
2018-04-27T13:37:26.016Z,12.30
2018-04-27T13:39:54.838Z,12.70
2018-04-27T13:42:23.890Z,12.80
2018-04-27T13:44:53.456Z,12.80
2018-04-27T13:47:21.961Z,12.50
2018-04-27T13:49:50.649Z,12.50
2018-04-27T13:52:19.307Z,12.20
2018-04-27T13:54:48.095Z,12.10
2018-04-27T13:57:16.671Z,12.20
2018-04-27T13:59:45.236Z,12.10
2018-04-27T14:02:14.788Z,12.50
2018-04-27T14:04:44.233Z,12.50
2018-04-27T14:07:12.919Z,12.40
2018-04-27T14:09:41.542Z,12.20
2018-04-27T14:12:10.287Z,11.90
2018-04-27T14:14:39.380Z,11.90
2018-04-27T14:17:08.478Z,12.00
2018-04-27T14:19:37.576Z,11.80
2018-04-27T14:22:06.668Z,11.80
2018-04-27T14:24:35.221Z,11.90
2018-04-27T14:27:03.991Z,11.80
2018-04-27T14:29:33.139Z,12.10
2018-04-27T14:32:01.801Z,12.20
2018-04-27T14:34:30.839Z,12.30
2018-04-27T14:36:59.531Z,12.40
2018-04-27T14:39:28.573Z,12.10
2018-04-27T14:41:57.798Z,12.10
2018-04-27T14:44:26.891Z,12.20
2018-04-27T14:46:55.407Z,12.20
2018-04-27T14:49:24.263Z,12.40
2018-04-27T14:51:52.858Z,12.70
2018-04-27T14:54:21.577Z,12.80
2018-04-27T14:56:50.724Z,13.00
2018-04-27T14:59:19.823Z,13.10
2018-04-27T15:01:48.853Z,13.20
2018-04-27T15:04:17.521Z,13.30
2018-04-27T15:06:46.613Z,13.40
2018-04-27T15:09:15.792Z,13.40
2018-04-27T15:11:44.823Z,13.50
2018-04-27T15:14:13.913Z,13.40
2018-04-27T15:16:42.995Z,13.70
2018-04-27T15:19:11.559Z,13.60
2018-04-27T15:21:40.858Z,13.70
2018-04-27T15:24:09.449Z,13.50
2018-04-27T15:26:38.641Z,13.40
2018-04-27T15:29:07.372Z,13.30
2018-04-27T15:31:35.923Z,13.20
2018-04-27T15:34:04.509Z,13.00
2018-04-27T15:36:33.119Z,12.80
2018-04-27T15:39:02.009Z,13.00
2018-04-27T15:41:30.760Z,12.90
2018-04-27T15:43:59.848Z,12.90
2018-04-27T15:46:28.683Z,13.00
2018-04-27T15:48:57.317Z,13.30
2018-04-27T15:51:25.919Z,13.50
2018-04-27T15:53:54.491Z,13.40
2018-04-27T15:56:23.578Z,13.40
2018-04-27T15:58:52.374Z,13.50
2018-04-27T16:01:21.947Z,13.50
2018-04-27T16:03:51.386Z,13.40
2018-04-27T16:06:20.392Z,13.40
2018-04-27T16:08:49.175Z,13.50
2018-04-27T16:11:18.278Z,13.30
2018-04-27T16:13:58.567Z,12.90
2018-04-27T16:16:27.185Z,12.20
2018-04-27T16:18:59.557Z,11.70
2018-04-27T16:21:28.286Z,11.70
2018-04-27T16:23:58.649Z,11.70
2018-04-27T16:26:29.638Z,11.60
2018-04-27T16:28:58.644Z,11.40
2018-04-27T16:31:28.429Z,11.20
2018-04-27T16:33:57.230Z,10.90
2018-04-27T16:36:26.423Z,10.80
2018-04-27T16:38:55.511Z,10.50
2018-04-27T16:41:24.812Z,10.20
2018-04-27T16:43:54.474Z,9.50
2018-04-27T16:46:23.629Z,9.50
2018-04-27T16:48:52.724Z,9.30
2018-04-27T16:51:21.602Z,9.20
2018-04-27T16:53:50.816Z,9.30
2018-04-27T16:56:20.014Z,9.40
2018-04-27T16:58:49.101Z,9.50
2018-04-27T17:01:17.781Z,9.80
2018-04-27T17:03:46.896Z,10.20
2018-04-27T17:06:15.948Z,10.20
2018-04-27T17:08:44.662Z,10.40
2018-04-27T17:11:13.638Z,10.60
2018-04-27T17:13:42.439Z,10.70
2018-04-27T17:16:11.451Z,10.70
2018-04-27T17:18:40.532Z,10.70
2018-04-27T17:21:09.928Z,10.70
2018-04-27T17:23:38.769Z,10.70
2018-04-27T17:26:07.915Z,10.80
2018-04-27T17:28:38.085Z,10.80
2018-04-27T17:31:06.621Z,10.80
2018-04-27T17:33:35.231Z,10.90
2018-04-27T17:36:04.302Z,10.90
2018-04-27T17:38:32.982Z,10.90
2018-04-27T17:41:01.714Z,10.80
2018-04-27T17:43:31.656Z,10.50
2018-04-27T17:46:00.235Z,10.50
2018-04-27T17:48:29.260Z,10.40
2018-04-27T17:50:58.053Z,10.40
2018-04-27T17:53:27.053Z,10.40
2018-04-27T17:55:55.790Z,10.30
2018-04-27T17:58:24.925Z,10.40
2018-04-27T18:00:54.432Z,10.40
2018-04-27T18:03:24.937Z,10.30
2018-04-27T18:12:38.127Z,10.20
2018-04-27T18:15:07.021Z,9.90
2018-04-27T18:17:35.636Z,9.90
2018-04-27T18:20:04.512Z,9.90
2018-04-27T18:22:33.298Z,9.70
2018-04-27T18:25:02.343Z,9.50
2018-04-27T18:27:31.673Z,9.50
2018-04-27T18:30:00.474Z,9.50
2018-04-27T18:32:29.167Z,9.50
2018-04-27T18:34:57.884Z,9.50
2018-04-27T18:37:27.033Z,9.60
2018-04-27T18:39:56.129Z,9.50
2018-04-27T18:42:25.236Z,9.50
2018-04-27T18:44:54.153Z,9.40
2018-04-27T18:47:23.524Z,9.30
2018-04-27T18:49:52.166Z,9.20
2018-04-27T18:52:22.011Z,9.20
2018-04-27T18:54:51.168Z,9.10
2018-04-27T18:57:25.936Z,9.10
2018-04-27T18:59:54.529Z,9.10
2018-04-27T19:02:23.117Z,9.10
2018-04-27T19:04:51.843Z,9.00
2018-04-27T19:07:23.050Z,9.30
2018-04-27T19:09:51.663Z,9.20
2018-04-27T19:12:20.918Z,9.30
2018-04-27T19:14:49.930Z,9.20
2018-04-27T19:17:19.002Z,9.10
2018-04-27T19:19:49.041Z,9.20
2018-04-27T19:22:20.929Z,9.20
2018-04-27T19:24:50.086Z,9.00
2018-04-27T19:27:19.180Z,8.80
2018-04-27T19:29:47.802Z,8.70
2018-04-27T19:32:16.431Z,8.70
2018-04-27T19:34:45.155Z,8.80
2018-04-27T19:37:14.305Z,9.00
2018-04-27T19:39:43.349Z,8.90
2018-04-27T19:42:12.521Z,8.90
2018-04-27T19:44:41.172Z,9.00
2018-04-27T19:47:09.854Z,9.00
2018-04-27T19:49:38.687Z,9.00
2018-04-27T19:52:07.377Z,9.10
2018-04-27T19:54:36.002Z,9.00
2018-04-27T19:57:04.585Z,9.00
2018-04-27T19:59:33.204Z,9.00
2018-04-27T20:02:01.809Z,9.00
2018-04-27T20:04:30.389Z,9.00
2018-04-27T20:06:59.039Z,8.90
2018-04-27T20:09:27.614Z,8.80
2018-04-27T20:11:56.297Z,8.90
2018-04-27T20:14:31.774Z,9.00
2018-04-27T20:17:04.787Z,8.80
2018-04-27T20:19:38.165Z,8.80
2018-04-27T20:22:12.718Z,8.70
2018-04-27T20:24:41.477Z,8.70
2018-04-27T20:27:10.567Z,8.70
2018-04-27T20:29:39.591Z,8.70
2018-04-27T20:32:08.772Z,8.80
2018-04-27T20:34:37.745Z,8.70
2018-04-27T20:37:06.814Z,8.70
2018-04-27T20:39:35.787Z,8.70
2018-04-27T20:42:07.604Z,8.70
2018-04-27T20:44:36.695Z,8.70
2018-04-27T20:47:05.778Z,8.70
2018-04-27T20:49:38.844Z,8.40
2018-04-27T20:52:07.873Z,8.30
2018-04-27T20:54:36.763Z,8.30
2018-04-27T20:57:05.844Z,8.40
2018-04-27T20:59:34.894Z,8.40
2018-04-27T21:02:03.929Z,8.30
2018-04-27T21:04:33.048Z,8.30
2018-04-27T21:07:02.113Z,8.10
2018-04-27T21:09:30.926Z,8.20
2018-04-27T21:11:59.947Z,8.20
2018-04-27T21:14:29.037Z,8.00
2018-04-27T21:16:57.958Z,7.90
2018-04-27T21:19:26.821Z,7.90
2018-04-27T21:21:56.810Z,7.80
2018-04-27T21:24:25.878Z,7.90
2018-04-27T21:26:54.924Z,7.90
2018-04-27T21:29:24.101Z,7.80
2018-04-27T21:31:53.104Z,7.80
2018-04-27T21:34:22.291Z,7.80
2018-04-27T21:36:51.390Z,7.70
2018-04-27T21:39:20.872Z,7.70
2018-04-27T21:41:53.207Z,7.60
2018-04-27T21:44:41.062Z,7.50
2018-04-27T21:47:29.879Z,7.40
2018-04-27T21:50:02.328Z,7.30
2018-04-27T21:52:31.390Z,7.50
2018-04-27T21:55:00.480Z,7.60
2018-04-27T21:57:41.094Z,7.60
2018-04-27T22:00:13.047Z,7.60
2018-04-27T22:03:10.134Z,7.60
2018-04-27T22:08:43.475Z,7.50
2018-04-27T22:11:12.032Z,7.50
2018-04-27T22:13:40.675Z,7.50
2018-04-27T22:19:15.388Z,7.30
2018-04-27T22:21:44.755Z,7.10
2018-04-27T22:24:15.592Z,7.00
2018-04-27T22:26:45.043Z,7.00
2018-04-27T22:29:38.346Z,7.00
2018-04-27T22:32:15.840Z,6.90
2018-04-27T22:34:48.418Z,6.90
2018-04-27T22:37:17.956Z,7.00
2018-04-27T22:39:52.493Z,6.90
2018-04-27T22:42:21.099Z,6.90
2018-04-27T22:44:50.478Z,7.00
2018-04-27T22:47:37.323Z,6.90
2018-04-27T22:50:05.946Z,6.90
2018-04-27T22:52:35.296Z,6.80
2018-04-27T22:55:03.881Z,6.80
2018-04-27T22:57:36.295Z,6.80
2018-04-27T23:00:19.710Z,6.80
2018-04-27T23:02:51.119Z,6.90
2018-04-27T23:05:30.530Z,6.90
2018-04-27T23:08:01.752Z,6.70
2018-04-27T23:10:51.759Z,6.70
2018-04-27T23:13:37.878Z,6.70
2018-04-27T23:16:06.479Z,6.60
2018-04-27T23:18:44.853Z,6.50
2018-04-27T23:21:25.898Z,6.30
2018-04-27T23:23:54.540Z,6.20
2018-04-27T23:26:23.175Z,6.20
2018-04-27T23:28:51.776Z,6.10
2018-04-27T23:31:21.197Z,6.10
2018-04-27T23:33:49.821Z,6.00
2018-04-27T23:36:18.457Z,6.00
2018-04-27T23:38:47.058Z,6.00
2018-04-27T23:41:15.701Z,5.90
2018-04-27T23:43:44.287Z,5.80
2018-04-27T23:46:12.898Z,5.80
2018-04-27T23:48:41.507Z,5.90
2018-04-27T23:51:10.848Z,5.90
2018-04-27T23:53:39.508Z,5.90
2018-04-27T23:56:09.006Z,5.80
2018-04-27T23:58:37.605Z,5.80
